createdAt,value
2019-02-27T00:00:48.985Z,1.77
2019-02-27T00:03:17.667Z,3.50
2019-02-27T00:05:46.204Z,1.37
2019-02-27T00:08:14.927Z,1.40
2019-02-27T00:10:42.995Z,1.63
2019-02-27T00:13:11.188Z,1.73
2019-02-27T00:15:40.810Z,1.80
2019-02-27T00:18:08.998Z,1.50
2019-02-27T00:20:37.740Z,1.93
2019-02-27T00:23:06.005Z,2.00
2019-02-27T00:25:36.123Z,1.60
2019-02-27T00:28:05.051Z,1.63
2019-02-27T00:30:33.142Z,1.60
2019-02-27T00:33:01.205Z,1.40
2019-02-27T00:35:29.236Z,1.50
2019-02-27T00:37:57.739Z,1.47
2019-02-27T00:40:25.805Z,1.50
2019-02-27T00:42:54.452Z,1.43
2019-02-27T00:45:23.015Z,2.43
2019-02-27T00:47:53.304Z,1.97
2019-02-27T00:50:21.050Z,3.40
2019-02-27T00:52:51.188Z,1.40
2019-02-27T00:55:19.225Z,1.50
2019-02-27T00:57:47.422Z,1.30
2019-02-27T01:00:16.522Z,1.50
2019-02-27T01:02:44.797Z,2.63
2019-02-27T01:05:13.366Z,1.50
2019-02-27T01:07:41.781Z,1.40
2019-02-27T01:10:12.290Z,1.27
2019-02-27T01:12:40.256Z,1.50
2019-02-27T01:15:10.533Z,1.30
2019-02-27T01:17:38.547Z,2.77
2019-02-27T01:20:11.222Z,1.77
2019-02-27T01:22:37.410Z,2.13
2019-02-27T01:25:06.174Z,1.60
2019-02-27T01:27:37.899Z,2.80
2019-02-27T01:30:05.666Z,1.43
2019-02-27T01:32:34.103Z,5.53
2019-02-27T01:35:02.163Z,2.13
2019-02-27T01:37:31.641Z,1.30
2019-02-27T01:40:00.362Z,1.50
2019-02-27T01:42:32.759Z,2.53
2019-02-27T01:45:00.348Z,1.83
2019-02-27T01:47:30.594Z,1.37
2019-02-27T01:49:58.630Z,1.47
2019-02-27T01:52:27.907Z,1.73
2019-02-27T01:54:56.089Z,1.30
2019-02-27T01:57:24.123Z,1.40
2019-02-27T01:59:52.155Z,2.00
2019-02-27T02:02:20.240Z,1.43
2019-02-27T02:04:52.941Z,2.03
2019-02-27T02:07:19.863Z,2.07
2019-02-27T02:09:52.141Z,1.47
2019-02-27T02:12:26.621Z,1.97
2019-02-27T02:15:29.862Z,2.60
2019-02-27T02:18:54.715Z,1.57
2019-02-27T02:22:33.270Z,1.60
2019-02-27T02:26:08.620Z,1.80
2019-02-27T02:29:45.865Z,2.10
2019-02-27T02:32:52.344Z,1.43
2019-02-27T02:36:04.157Z,1.40
2019-02-27T02:39:46.279Z,1.57
2019-02-27T02:43:03.187Z,2.37
2019-02-27T02:46:45.547Z,1.60
2019-02-27T02:50:23.380Z,1.50
2019-02-27T02:53:37.196Z,1.60
2019-02-27T02:57:00.129Z,1.57
2019-02-27T03:00:07.685Z,1.30
2019-02-27T03:03:06.871Z,1.60
2019-02-27T03:06:13.510Z,1.63
2019-02-27T03:09:16.124Z,1.40
2019-02-27T03:12:29.878Z,2.40
2019-02-27T03:16:04.617Z,2.63
2019-02-27T03:19:41.272Z,1.70
2019-02-27T03:23:05.646Z,1.53
2019-02-27T03:25:54.475Z,1.60
2019-02-27T03:29:24.762Z,1.67
2019-02-27T03:32:45.649Z,1.27
2019-02-27T03:35:51.593Z,1.53
2019-02-27T03:38:59.189Z,1.40
2019-02-27T03:42:16.013Z,1.40
2019-02-27T03:45:45.570Z,1.30
2019-02-27T03:48:51.205Z,1.43
2019-02-27T03:52:28.180Z,2.93
2019-02-27T03:55:51.054Z,1.80
2019-02-27T03:59:12.292Z,1.80
2019-02-27T04:02:44.134Z,2.40
2019-02-27T04:06:24.922Z,1.70
2019-02-27T04:08:57.346Z,1.97
2019-02-27T04:11:26.491Z,1.63
2019-02-27T04:13:59.574Z,1.50
2019-02-27T04:16:29.307Z,2.30
2019-02-27T04:19:03.022Z,1.60
2019-02-27T04:21:27.517Z,1.67
2019-02-27T04:23:55.555Z,1.63
2019-02-27T04:26:24.709Z,1.70
2019-02-27T04:28:54.294Z,2.00
2019-02-27T04:31:22.367Z,1.57
2019-02-27T04:33:50.541Z,1.67
2019-02-27T04:36:18.661Z,2.00
2019-02-27T04:38:46.898Z,1.60
2019-02-27T04:41:17.863Z,1.80
2019-02-27T04:43:44.921Z,1.67
2019-02-27T04:46:13.042Z,1.63
2019-02-27T04:48:41.459Z,1.30
2019-02-27T04:51:10.623Z,1.53
2019-02-27T04:53:40.712Z,2.03
2019-02-27T04:56:08.658Z,1.87
2019-02-27T04:58:37.260Z,2.60
2019-02-27T05:01:05.597Z,1.40
2019-02-27T05:03:33.699Z,2.40
2019-02-27T05:06:01.740Z,1.67
2019-02-27T05:08:30.874Z,1.87
2019-02-27T05:10:59.015Z,1.80
2019-02-27T05:13:27.419Z,2.70
2019-02-27T05:15:55.663Z,1.50
2019-02-27T05:18:24.073Z,1.67
2019-02-27T05:20:52.943Z,1.83
2019-02-27T05:23:21.294Z,1.83
2019-02-27T05:25:49.405Z,2.87
2019-02-27T05:28:17.546Z,2.23
2019-02-27T05:30:49.917Z,1.73
2019-02-27T05:33:18.490Z,1.80
2019-02-27T05:35:47.198Z,1.77
2019-02-27T05:38:15.287Z,2.23
2019-02-27T05:40:44.480Z,1.60
2019-02-27T05:43:13.851Z,2.17
2019-02-27T05:45:43.276Z,2.00
2019-02-27T05:48:12.747Z,2.30
2019-02-27T05:50:40.855Z,1.60
2019-02-27T05:53:10.619Z,1.50
2019-02-27T05:55:39.223Z,2.70
2019-02-27T05:58:09.622Z,4.23
2019-02-27T06:00:37.756Z,1.53
2019-02-27T06:03:05.895Z,1.60
2019-02-27T06:05:35.920Z,2.10
2019-02-27T06:08:06.014Z,2.03
2019-02-27T06:10:34.180Z,1.67
2019-02-27T06:13:02.332Z,1.70
2019-02-27T06:15:30.414Z,1.40
2019-02-27T06:17:58.470Z,1.83
2019-02-27T06:20:26.726Z,1.70
2019-02-27T06:22:54.792Z,2.27
2019-02-27T06:25:23.931Z,1.80
2019-02-27T06:27:52.350Z,3.40
2019-02-27T06:30:21.501Z,3.00
2019-02-27T06:32:49.636Z,2.00
2019-02-27T06:35:17.937Z,1.50
2019-02-27T06:37:50.476Z,1.40
2019-02-27T06:40:18.077Z,1.83
2019-02-27T06:42:51.324Z,1.93
2019-02-27T06:45:20.885Z,1.83
2019-02-27T06:47:50.219Z,1.50
2019-02-27T06:50:18.282Z,1.70
2019-02-27T06:52:46.852Z,1.40
2019-02-27T06:55:14.947Z,1.50
2019-02-27T06:57:43.014Z,2.00
2019-02-27T07:00:17.167Z,1.73
2019-02-27T07:02:45.244Z,2.57
2019-02-27T07:05:14.158Z,1.67
2019-02-27T07:07:42.337Z,1.50
2019-02-27T07:10:12.213Z,1.97
2019-02-27T07:12:40.320Z,1.87
2019-02-27T07:15:12.906Z,1.73
2019-02-27T07:17:41.572Z,1.77
2019-02-27T07:20:10.754Z,1.73
2019-02-27T07:22:38.914Z,2.83
2019-02-27T07:25:08.171Z,2.53
2019-02-27T07:27:36.304Z,1.73
2019-02-27T07:30:07.483Z,2.63
2019-02-27T07:32:35.995Z,1.70
2019-02-27T07:35:04.448Z,1.83
2019-02-27T07:37:32.620Z,1.77
2019-02-27T07:40:01.182Z,2.13
2019-02-27T07:42:32.098Z,2.30
2019-02-27T07:45:00.828Z,1.93
2019-02-27T07:47:29.019Z,2.73
2019-02-27T07:49:57.095Z,2.20
2019-02-27T07:52:25.160Z,1.90
2019-02-27T07:54:54.930Z,2.00
2019-02-27T07:57:23.282Z,4.27
2019-02-27T07:59:51.394Z,1.80
2019-02-27T08:02:19.495Z,2.23
2019-02-27T08:04:47.874Z,1.80
2019-02-27T08:07:17.111Z,2.43
2019-02-27T08:09:45.345Z,2.77
2019-02-27T08:12:13.593Z,2.63
2019-02-27T08:14:43.349Z,2.00
2019-02-27T08:17:17.757Z,2.10
2019-02-27T08:19:42.846Z,1.93
2019-02-27T08:22:14.626Z,2.20
2019-02-27T08:24:43.420Z,3.83
2019-02-27T08:27:11.429Z,3.43
2019-02-27T08:29:39.695Z,3.27
2019-02-27T08:32:07.755Z,3.40
2019-02-27T08:34:36.244Z,3.50
2019-02-27T08:37:04.302Z,3.63
2019-02-27T08:39:33.183Z,4.27
2019-02-27T08:42:03.551Z,4.23
2019-02-27T08:44:31.235Z,4.00
2019-02-27T08:47:01.414Z,4.53
2019-02-27T08:49:31.964Z,4.67
2019-02-27T08:52:01.241Z,4.33
2019-02-27T08:54:32.216Z,4.60
2019-02-27T08:56:59.266Z,4.67
2019-02-27T08:59:27.315Z,5.10
2019-02-27T09:01:56.518Z,4.87
2019-02-27T09:04:24.561Z,5.80
2019-02-27T09:06:53.955Z,6.07
2019-02-27T09:09:21.998Z,5.40
2019-02-27T09:11:50.692Z,5.17
2019-02-27T09:14:18.784Z,4.67
2019-02-27T09:16:46.866Z,4.97
2019-02-27T09:19:16.299Z,6.53
2019-02-27T09:21:44.368Z,4.60
2019-02-27T09:24:12.464Z,4.23
2019-02-27T09:26:42.347Z,5.63
2019-02-27T09:29:10.478Z,4.30
2019-02-27T09:31:38.622Z,4.90
2019-02-27T09:34:07.019Z,5.03
2019-02-27T09:36:35.085Z,4.73
2019-02-27T09:39:04.872Z,4.67
2019-02-27T09:41:34.159Z,4.63
2019-02-27T09:44:02.364Z,4.80
2019-02-27T09:46:30.625Z,5.07
2019-02-27T09:48:58.682Z,4.33
2019-02-27T09:51:27.056Z,5.30
2019-02-27T09:53:55.240Z,4.73
2019-02-27T09:56:26.042Z,5.63
2019-02-27T09:58:54.172Z,5.27
2019-02-27T10:01:22.729Z,5.43
2019-02-27T10:03:52.114Z,5.10
2019-02-27T10:06:21.364Z,5.10
2019-02-27T10:08:49.388Z,4.57
2019-02-27T10:11:19.538Z,5.10
2019-02-27T10:13:47.391Z,4.83
2019-02-27T10:16:15.477Z,5.03
2019-02-27T10:18:44.749Z,5.23
2019-02-27T10:21:12.788Z,5.40
2019-02-27T10:23:40.825Z,5.50
2019-02-27T10:26:08.995Z,5.30
2019-02-27T10:28:39.697Z,5.27
2019-02-27T10:31:08.473Z,4.87
2019-02-27T10:33:36.777Z,5.30
2019-02-27T10:36:06.068Z,4.90
2019-02-27T10:38:40.093Z,5.67
2019-02-27T10:41:04.780Z,6.20
2019-02-27T10:43:32.840Z,4.93
2019-02-27T10:46:00.934Z,4.60
2019-02-27T10:48:29.352Z,4.83
2019-02-27T10:50:57.525Z,5.13
2019-02-27T10:53:27.440Z,4.90
2019-02-27T10:55:56.155Z,5.17
2019-02-27T10:58:24.719Z,5.47
2019-02-27T11:00:54.664Z,5.10
2019-02-27T11:03:27.122Z,5.23
2019-02-27T11:05:55.560Z,5.20
2019-02-27T11:08:28.637Z,5.57
2019-02-27T11:10:55.189Z,5.23
2019-02-27T11:13:23.719Z,5.30
2019-02-27T11:15:51.827Z,6.73
2019-02-27T11:18:19.898Z,5.10
2019-02-27T11:20:49.022Z,4.67
2019-02-27T11:23:17.213Z,6.03
2019-02-27T11:25:45.325Z,5.50
2019-02-27T11:28:13.659Z,5.80
2019-02-27T11:30:43.488Z,6.73
2019-02-27T11:33:11.559Z,8.57
2019-02-27T11:35:40.698Z,5.90
2019-02-27T11:38:09.021Z,5.40
2019-02-27T11:40:41.779Z,5.90
2019-02-27T11:43:07.641Z,5.93
2019-02-27T11:45:39.168Z,5.77
2019-02-27T11:48:07.342Z,5.30
2019-02-27T11:50:35.841Z,4.87
2019-02-27T11:53:04.406Z,4.93
2019-02-27T11:55:32.547Z,4.60
2019-02-27T11:58:04.556Z,4.90
2019-02-27T12:00:31.132Z,4.23
2019-02-27T12:02:59.599Z,4.83
2019-02-27T12:05:33.686Z,5.47
2019-02-27T12:07:58.173Z,7.50
2019-02-27T12:10:26.971Z,5.00
2019-02-27T12:12:59.556Z,5.97
2019-02-27T12:15:27.444Z,5.83
2019-02-27T12:17:59.720Z,6.00
2019-02-27T12:20:27.197Z,5.13
2019-02-27T12:22:56.092Z,5.03
2019-02-27T12:25:29.190Z,5.83
2019-02-27T12:27:55.712Z,5.50
2019-02-27T12:30:24.544Z,6.00
2019-02-27T12:32:55.588Z,6.07
2019-02-27T12:35:25.514Z,4.80
2019-02-27T12:37:53.833Z,4.53
2019-02-27T12:40:24.956Z,5.57
2019-02-27T12:42:52.333Z,5.77
2019-02-27T12:45:21.639Z,4.53
2019-02-27T12:47:51.209Z,6.43
2019-02-27T12:50:20.913Z,5.10
2019-02-27T12:52:49.290Z,5.63
2019-02-27T12:55:20.350Z,5.40
2019-02-27T12:57:49.539Z,5.17
2019-02-27T13:00:22.057Z,5.20
2019-02-27T13:02:50.091Z,5.83
2019-02-27T13:05:18.603Z,6.00
2019-02-27T13:07:46.664Z,5.20
2019-02-27T13:10:19.734Z,5.63
2019-02-27T13:12:51.888Z,5.93
2019-02-27T13:15:21.405Z,6.43
2019-02-27T13:17:50.094Z,6.60
2019-02-27T13:20:21.043Z,7.13
2019-02-27T13:22:49.068Z,6.17
2019-02-27T13:25:17.397Z,6.07
2019-02-27T13:27:45.430Z,8.37
2019-02-27T13:30:17.274Z,6.57
2019-02-27T13:32:45.631Z,6.17
2019-02-27T13:35:14.030Z,6.83
2019-02-27T13:37:44.648Z,6.27
2019-02-27T13:40:17.834Z,6.60
2019-02-27T13:42:45.870Z,6.73
2019-02-27T13:45:17.057Z,7.23
2019-02-27T13:47:45.407Z,6.30
2019-02-27T13:50:13.937Z,6.83
2019-02-27T13:52:44.913Z,7.20
2019-02-27T13:55:13.519Z,7.30
2019-02-27T13:57:41.896Z,7.50
2019-02-27T14:00:20.837Z,7.07
2019-02-27T14:02:50.735Z,7.80
2019-02-27T14:05:18.808Z,7.20
2019-02-27T14:07:47.073Z,7.53
2019-02-27T14:10:19.824Z,8.40
2019-02-27T14:12:47.902Z,6.83
2019-02-27T14:15:16.605Z,7.10
2019-02-27T14:17:44.774Z,7.50
2019-02-27T14:20:15.504Z,8.10
2019-02-27T14:22:45.118Z,7.53
2019-02-27T14:25:16.938Z,8.03
2019-02-27T14:27:47.440Z,8.33
2019-02-27T14:30:21.570Z,7.27
2019-02-27T14:32:49.718Z,7.20
2019-02-27T14:35:19.044Z,8.20
2019-02-27T14:37:50.144Z,7.57
2019-02-27T14:40:18.859Z,6.87
2019-02-27T14:42:47.070Z,7.50
2019-02-27T14:45:17.903Z,7.37
2019-02-27T14:47:47.359Z,7.27
2019-02-27T14:50:18.012Z,7.87
2019-02-27T14:52:46.230Z,7.77
2019-02-27T14:55:15.122Z,7.43
2019-02-27T14:57:43.322Z,9.13
2019-02-27T15:00:18.984Z,7.10
2019-02-27T15:02:47.604Z,7.40
2019-02-27T15:05:15.794Z,6.70
2019-02-27T15:07:43.934Z,8.60
2019-02-27T15:10:13.377Z,7.67
2019-02-27T15:12:41.426Z,7.07
2019-02-27T15:15:13.977Z,7.70
2019-02-27T15:17:42.021Z,7.33
2019-02-27T15:20:11.961Z,7.90
2019-02-27T15:22:40.412Z,7.67
2019-02-27T15:25:11.109Z,8.27
2019-02-27T15:27:39.418Z,8.63
2019-02-27T15:30:12.816Z,8.17
2019-02-27T15:32:40.078Z,7.23
2019-02-27T15:35:08.488Z,7.10
2019-02-27T15:37:38.029Z,9.07
2019-02-27T15:40:07.693Z,7.23
2019-02-27T15:42:36.666Z,8.17
2019-02-27T15:45:09.977Z,8.57
2019-02-27T15:47:37.300Z,8.00
2019-02-27T15:50:07.476Z,6.40
2019-02-27T15:52:38.170Z,6.90
2019-02-27T15:55:05.948Z,6.83
2019-02-27T15:57:34.117Z,7.97
2019-02-27T16:00:02.408Z,9.13
2019-02-27T16:02:34.093Z,7.30
2019-02-27T16:05:05.272Z,7.70
2019-02-27T16:07:33.703Z,8.80
2019-02-27T16:10:06.556Z,8.60
2019-02-27T16:12:32.222Z,7.17
2019-02-27T16:15:00.448Z,7.93
2019-02-27T16:17:30.962Z,8.10
2019-02-27T16:19:58.647Z,7.67
2019-02-27T16:22:30.215Z,6.70
2019-02-27T16:24:58.678Z,7.03
2019-02-27T16:27:27.457Z,8.13
2019-02-27T16:29:56.713Z,8.23
2019-02-27T16:32:25.892Z,12.03
2019-02-27T16:34:58.781Z,6.80
2019-02-27T16:37:27.182Z,8.27
2019-02-27T16:39:55.414Z,9.10
2019-02-27T16:42:23.597Z,8.80
2019-02-27T16:44:54.445Z,8.10
2019-02-27T16:47:23.741Z,8.13
2019-02-27T16:49:52.016Z,7.70
2019-02-27T16:52:20.136Z,9.33
2019-02-27T16:54:48.274Z,7.33
2019-02-27T16:57:21.216Z,7.93
2019-02-27T16:59:46.270Z,7.47
2019-02-27T17:02:15.646Z,7.37
2019-02-27T17:04:43.696Z,7.40
2019-02-27T17:07:11.864Z,8.97
2019-02-27T17:09:43.808Z,7.80
2019-02-27T17:12:11.031Z,7.57
2019-02-27T17:14:39.436Z,8.60
2019-02-27T17:17:07.957Z,11.83
2019-02-27T17:19:37.328Z,7.40
2019-02-27T17:22:05.536Z,7.57
2019-02-27T17:24:33.665Z,8.77
2019-02-27T17:27:01.851Z,7.00
2019-02-27T17:29:31.113Z,7.97
2019-02-27T17:31:59.431Z,7.53
2019-02-27T17:34:27.586Z,7.37
2019-02-27T17:36:55.656Z,7.17
2019-02-27T17:39:27.693Z,5.80
2019-02-27T17:41:53.953Z,6.23
2019-02-27T17:44:22.126Z,7.43
2019-02-27T17:46:51.695Z,7.63
2019-02-27T17:49:22.170Z,7.90
2019-02-27T17:51:51.279Z,7.87
2019-02-27T17:54:19.618Z,8.10
2019-02-27T17:56:50.024Z,7.80
2019-02-27T17:59:18.181Z,5.93
2019-02-27T18:01:47.027Z,6.17
2019-02-27T18:04:15.558Z,5.73
2019-02-27T18:06:43.913Z,6.87
2019-02-27T18:09:11.983Z,5.83
2019-02-27T18:11:42.142Z,5.73
2019-02-27T18:14:10.281Z,7.33
2019-02-27T18:16:39.562Z,5.80
2019-02-27T18:19:07.692Z,5.20
2019-02-27T18:21:36.129Z,6.40
2019-02-27T18:24:04.806Z,5.50
2019-02-27T18:26:32.979Z,6.13
2019-02-27T18:29:01.207Z,5.63
2019-02-27T18:31:32.076Z,6.10
2019-02-27T18:34:00.743Z,5.23
2019-02-27T18:36:28.940Z,4.37
2019-02-27T18:39:01.647Z,4.50
2019-02-27T18:41:27.690Z,4.77
2019-02-27T18:43:55.827Z,3.83
2019-02-27T18:46:24.814Z,4.43
2019-02-27T18:48:53.782Z,4.00
2019-02-27T18:51:22.253Z,4.27
2019-02-27T18:53:50.433Z,4.13
2019-02-27T18:56:18.638Z,3.70
2019-02-27T18:58:47.935Z,4.60
2019-02-27T19:01:16.188Z,4.90
2019-02-27T19:03:44.741Z,4.60
2019-02-27T19:06:13.128Z,4.70
2019-02-27T19:08:41.359Z,4.27
2019-02-27T19:11:12.901Z,3.90
2019-02-27T19:13:40.987Z,4.07
2019-02-27T19:16:11.006Z,3.53
2019-02-27T19:18:41.178Z,3.77
2019-02-27T19:21:09.877Z,3.70
2019-02-27T19:23:38.211Z,3.83
2019-02-27T19:26:09.355Z,3.97
2019-02-27T19:28:38.416Z,3.27
2019-02-27T19:31:08.695Z,4.17
2019-02-27T19:33:37.472Z,3.63
2019-02-27T19:36:05.674Z,5.00
2019-02-27T19:38:33.902Z,4.07
2019-02-27T19:41:04.078Z,3.90
2019-02-27T19:43:32.560Z,3.40
2019-02-27T19:46:00.844Z,3.60
2019-02-27T19:48:30.204Z,3.57
2019-02-27T19:50:58.336Z,3.47
2019-02-27T19:53:27.403Z,5.00
2019-02-27T19:56:00.739Z,3.40
2019-02-27T19:58:27.548Z,3.20
2019-02-27T20:00:57.325Z,3.87
2019-02-27T20:03:25.781Z,3.80
2019-02-27T20:05:56.001Z,3.10
2019-02-27T20:08:26.453Z,3.73
2019-02-27T20:10:54.809Z,3.87
2019-02-27T20:13:24.710Z,4.13
2019-02-27T20:15:55.581Z,3.30
2019-02-27T20:18:24.749Z,3.77
2019-02-27T20:20:54.380Z,3.60
2019-02-27T20:23:25.754Z,3.17
2019-02-27T20:25:52.876Z,3.60
2019-02-27T20:28:21.097Z,3.27
2019-02-27T20:30:49.702Z,3.17
2019-02-27T20:33:18.419Z,4.03
2019-02-27T20:35:46.849Z,3.70
2019-02-27T20:38:16.984Z,3.80
2019-02-27T20:40:45.671Z,4.43
2019-02-27T20:43:14.012Z,3.47
2019-02-27T20:45:43.644Z,3.53
2019-02-27T20:48:12.147Z,3.30
2019-02-27T20:50:41.813Z,3.37
2019-02-27T20:53:10.941Z,3.57
2019-02-27T20:55:39.109Z,3.33
2019-02-27T20:58:07.750Z,2.83
2019-02-27T21:00:37.123Z,3.23
2019-02-27T21:03:05.746Z,3.13
2019-02-27T21:05:34.126Z,2.57
2019-02-27T21:08:02.739Z,2.93
2019-02-27T21:10:31.392Z,3.47
2019-02-27T21:13:01.008Z,2.90
2019-02-27T21:15:32.110Z,3.07
2019-02-27T21:17:59.393Z,3.03
2019-02-27T21:20:27.654Z,5.37
2019-02-27T21:22:55.735Z,2.60
2019-02-27T21:25:23.898Z,4.23
2019-02-27T21:27:52.576Z,3.50
2019-02-27T21:30:21.168Z,3.23
2019-02-27T21:32:49.307Z,3.50
2019-02-27T21:35:17.777Z,3.10
2019-02-27T21:37:45.942Z,3.20
2019-02-27T21:40:14.920Z,3.20
2019-02-27T21:42:43.089Z,2.97
2019-02-27T21:45:14.215Z,2.93
2019-02-27T21:47:43.576Z,3.43
2019-02-27T21:50:14.709Z,2.83
2019-02-27T21:52:42.848Z,3.90
2019-02-27T21:55:13.658Z,3.53
2019-02-27T21:57:42.088Z,2.80
2019-02-27T22:00:18.357Z,3.20
2019-02-27T22:02:46.718Z,3.30
2019-02-27T22:05:18.522Z,2.83
2019-02-27T22:07:45.396Z,4.53
2019-02-27T22:10:19.064Z,2.27
2019-02-27T22:12:44.940Z,2.37
2019-02-27T22:15:23.229Z,2.13
2019-02-27T22:17:55.134Z,2.83
2019-02-27T22:20:25.939Z,2.83
2019-02-27T22:22:54.192Z,2.40
2019-02-27T22:25:23.197Z,2.63
2019-02-27T22:27:53.132Z,3.27
2019-02-27T22:30:21.196Z,3.07
2019-02-27T22:32:49.941Z,2.60
2019-02-27T22:35:18.555Z,4.30
2019-02-27T22:37:51.085Z,3.23
2019-02-27T22:40:17.520Z,2.13
2019-02-27T22:42:48.618Z,2.20
2019-02-27T22:45:17.263Z,2.13
2019-02-27T22:47:45.480Z,2.30
2019-02-27T22:50:14.719Z,2.50
2019-02-27T22:52:42.782Z,2.37
2019-02-27T22:55:11.096Z,3.13
2019-02-27T22:57:40.207Z,3.30
2019-02-27T23:01:03.750Z,2.60
2019-02-27T23:03:44.549Z,2.20
2019-02-27T23:06:13.024Z,2.47
2019-02-27T23:08:41.837Z,2.30
2019-02-27T23:11:09.991Z,2.33
2019-02-27T23:13:38.263Z,2.20
2019-02-27T23:16:06.616Z,2.40
2019-02-27T23:18:37.357Z,2.40
2019-02-27T23:21:05.856Z,2.20
2019-02-27T23:23:36.746Z,2.70
2019-02-27T23:26:05.530Z,2.50
2019-02-27T23:28:34.870Z,1.93
2019-02-27T23:31:04.187Z,1.83
2019-02-27T23:33:35.836Z,2.90
2019-02-27T23:36:02.394Z,3.50
2019-02-27T23:38:30.774Z,1.77
2019-02-27T23:40:58.856Z,2.07
2019-02-27T23:43:27.237Z,2.43
2019-02-27T23:45:55.294Z,2.23
2019-02-27T23:48:23.371Z,3.00
2019-02-27T23:50:51.465Z,2.13
2019-02-27T23:53:19.568Z,2.27
2019-02-27T23:55:47.703Z,2.50
2019-02-27T23:58:15.752Z,1.90
